sensor_id;sensor_type;location;lat;lon;timestamp;P1;durP1;ratioP1;P2;durP2;ratioP2
2305;SDS011;1161;51.922;8.896;2022-09-09T00:00:39;12.83;;;1.33;;
2305;SDS011;1161;51.922;8.896;2022-09-09T00:03:11;2.60;;;1.33;;
2305;SDS011;1161;51.922;8.896;2022-09-09T00:05:44;6.20;;;1.40;;
2305;SDS011;1161;51.922;8.896;2022-09-09T00:08:18;1.43;;;1.30;;
2305;SDS011;1161;51.922;8.896;2022-09-09T00:10:47;3.33;;;1.37;;
2305;SDS011;1161;51.922;8.896;2022-09-09T00:13:20;2.73;;;1.83;;
2305;SDS011;1161;51.922;8.896;2022-09-09T00:15:55;2.93;;;1.50;;
2305;SDS011;1161;51.922;8.896;2022-09-09T00:18:24;6.10;;;2.50;;
2305;SDS011;1161;51.922;8.896;2022-09-09T00:20:57;2.00;;;1.60;;
2305;SDS011;1161;51.922;8.896;2022-09-09T00:23:28;1.90;;;1.07;;
2305;SDS011;1161;51.922;8.896;2022-09-09T00:25:59;3.50;;;1.90;;
2305;SDS011;1161;51.922;8.896;2022-09-09T00:28:29;6.27;;;1.80;;
2305;SDS011;1161;51.922;8.896;2022-09-09T00:30:59;12.63;;;1.57;;
2305;SDS011;1161;51.922;8.896;2022-09-09T00:33:31;4.63;;;1.90;;
2305;SDS011;1161;51.922;8.896;2022-09-09T00:36:00;4.93;;;1.73;;
2305;SDS011;1161;51.922;8.896;2022-09-09T00:38:28;9.80;;;1.67;;
2305;SDS011;1161;51.922;8.896;2022-09-09T00:41:00;7.33;;;1.47;;
2305;SDS011;1161;51.922;8.896;2022-09-09T00:43:31;7.00;;;1.53;;
2305;SDS011;1161;51.922;8.896;2022-09-09T00:46:03;4.10;;;1.83;;
2305;SDS011;1161;51.922;8.896;2022-09-09T00:48:38;2.30;;;1.67;;
2305;SDS011;1161;51.922;8.896;2022-09-09T00:51:15;4.30;;;1.57;;
2305;SDS011;1161;51.922;8.896;2022-09-09T00:53:54;4.23;;;1.67;;
2305;SDS011;1161;51.922;8.896;2022-09-09T00:56:29;4.13;;;1.77;;
2305;SDS011;1161;51.922;8.896;2022-09-09T00:59:01;3.90;;;2.20;;
2305;SDS011;1161;51.922;8.896;2022-09-09T01:01:31;12.77;;;2.47;;
2305;SDS011;1161;51.922;8.896;2022-09-09T01:03:58;6.23;;;1.57;;
2305;SDS011;1161;51.922;8.896;2022-09-09T01:06:28;2.93;;;2.00;;
2305;SDS011;1161;51.922;8.896;2022-09-09T01:11:41;7.17;;;2.17;;
2305;SDS011;1161;51.922;8.896;2022-09-09T01:14:14;2.17;;;1.70;;
2305;SDS011;1161;51.922;8.896;2022-09-09T01:16:47;1.83;;;1.50;;
2305;SDS011;1161;51.922;8.896;2022-09-09T01:19:16;3.03;;;1.77;;
2305;SDS011;1161;51.922;8.896;2022-09-09T01:21:48;5.00;;;2.50;;
2305;SDS011;1161;51.922;8.896;2022-09-09T01:24:22;1.73;;;1.63;;
2305;SDS011;1161;51.922;8.896;2022-09-09T01:26:54;2.80;;;1.50;;
2305;SDS011;1161;51.922;8.896;2022-09-09T01:29:24;11.40;;;1.97;;
2305;SDS011;1161;51.922;8.896;2022-09-09T01:31:52;8.63;;;1.90;;
2305;SDS011;1161;51.922;8.896;2022-09-09T01:34:20;5.80;;;2.40;;
2305;SDS011;1161;51.922;8.896;2022-09-09T01:36:49;9.00;;;2.20;;
2305;SDS011;1161;51.922;8.896;2022-09-09T01:39:19;2.63;;;1.77;;
2305;SDS011;1161;51.922;8.896;2022-09-09T01:41:46;9.70;;;2.37;;
2305;SDS011;1161;51.922;8.896;2022-09-09T01:44:15;8.43;;;2.43;;
2305;SDS011;1161;51.922;8.896;2022-09-09T01:46:43;6.83;;;2.27;;
2305;SDS011;1161;51.922;8.896;2022-09-09T01:49:10;4.70;;;2.70;;
2305;SDS011;1161;51.922;8.896;2022-09-09T01:51:38;3.33;;;1.70;;
2305;SDS011;1161;51.922;8.896;2022-09-09T01:54:05;5.77;;;2.50;;
2305;SDS011;1161;51.922;8.896;2022-09-09T01:56:35;5.10;;;2.90;;
2305;SDS011;1161;51.922;8.896;2022-09-09T01:59:09;2.20;;;2.00;;
2305;SDS011;1161;51.922;8.896;2022-09-09T02:01:57;7.47;;;2.47;;
2305;SDS011;1161;51.922;8.896;2022-09-09T02:04:36;8.00;;;2.33;;
2305;SDS011;1161;51.922;8.896;2022-09-09T02:07:05;5.70;;;2.07;;
2305;SDS011;1161;51.922;8.896;2022-09-09T02:09:35;3.93;;;1.73;;
2305;SDS011;1161;51.922;8.896;2022-09-09T02:12:05;5.80;;;2.40;;
2305;SDS011;1161;51.922;8.896;2022-09-09T02:14:37;3.30;;;2.60;;
2305;SDS011;1161;51.922;8.896;2022-09-09T02:17:07;7.37;;;2.43;;
2305;SDS011;1161;51.922;8.896;2022-09-09T02:19:37;9.97;;;2.67;;
2305;SDS011;1161;51.922;8.896;2022-09-09T02:22:06;6.00;;;2.90;;
2305;SDS011;1161;51.922;8.896;2022-09-09T02:24:33;3.47;;;2.30;;
2305;SDS011;1161;51.922;8.896;2022-09-09T02:27:02;9.70;;;2.60;;
2305;SDS011;1161;51.922;8.896;2022-09-09T02:29:35;5.67;;;2.57;;
2305;SDS011;1161;51.922;8.896;2022-09-09T02:32:06;7.00;;;1.97;;
2305;SDS011;1161;51.922;8.896;2022-09-09T02:34:38;3.27;;;2.53;;
2305;SDS011;1161;51.922;8.896;2022-09-09T02:37:08;3.80;;;2.10;;
2305;SDS011;1161;51.922;8.896;2022-09-09T02:39:36;2.43;;;2.00;;
2305;SDS011;1161;51.922;8.896;2022-09-09T02:42:03;1.93;;;1.73;;
2305;SDS011;1161;51.922;8.896;2022-09-09T02:44:32;2.67;;;2.47;;
2305;SDS011;1161;51.922;8.896;2022-09-09T02:47:07;4.63;;;3.10;;
2305;SDS011;1161;51.922;8.896;2022-09-09T02:49:41;6.17;;;3.47;;
2305;SDS011;1161;51.922;8.896;2022-09-09T02:52:15;3.70;;;2.50;;
2305;SDS011;1161;51.922;8.896;2022-09-09T02:54:45;5.70;;;2.97;;
2305;SDS011;1161;51.922;8.896;2022-09-09T02:57:13;2.30;;;2.10;;
2305;SDS011;1161;51.922;8.896;2022-09-09T02:59:42;2.63;;;2.43;;
2305;SDS011;1161;51.922;8.896;2022-09-09T03:02:11;8.83;;;3.20;;
2305;SDS011;1161;51.922;8.896;2022-09-09T03:04:41;3.27;;;2.17;;
2305;SDS011;1161;51.922;8.896;2022-09-09T03:07:09;4.70;;;3.10;;
2305;SDS011;1161;51.922;8.896;2022-09-09T03:09:37;3.00;;;2.60;;
2305;SDS011;1161;51.922;8.896;2022-09-09T03:12:04;2.97;;;2.77;;
2305;SDS011;1161;51.922;8.896;2022-09-09T03:14:32;6.03;;;3.17;;
2305;SDS011;1161;51.922;8.896;2022-09-09T03:16:59;3.50;;;2.93;;
2305;SDS011;1161;51.922;8.896;2022-09-09T03:19:30;7.70;;;2.97;;
2305;SDS011;1161;51.922;8.896;2022-09-09T03:21:58;2.73;;;2.53;;
2305;SDS011;1161;51.922;8.896;2022-09-09T03:24:26;5.20;;;2.47;;
2305;SDS011;1161;51.922;8.896;2022-09-09T03:26:53;8.03;;;3.73;;
2305;SDS011;1161;51.922;8.896;2022-09-09T03:29:21;9.53;;;2.60;;
2305;SDS011;1161;51.922;8.896;2022-09-09T03:31:48;6.13;;;3.13;;
2305;SDS011;1161;51.922;8.896;2022-09-09T03:34:16;6.73;;;3.80;;
2305;SDS011;1161;51.922;8.896;2022-09-09T03:36:44;8.70;;;4.33;;
2305;SDS011;1161;51.922;8.896;2022-09-09T03:39:12;3.63;;;2.37;;
2305;SDS011;1161;51.922;8.896;2022-09-09T03:41:40;4.47;;;2.73;;
2305;SDS011;1161;51.922;8.896;2022-09-09T03:44:18;3.83;;;2.97;;
2305;SDS011;1161;51.922;8.896;2022-09-09T03:46:45;2.10;;;2.00;;
2305;SDS011;1161;51.922;8.896;2022-09-09T03:49:13;3.97;;;2.17;;
2305;SDS011;1161;51.922;8.896;2022-09-09T03:51:40;5.50;;;3.00;;
2305;SDS011;1161;51.922;8.896;2022-09-09T03:54:09;8.40;;;3.70;;
2305;SDS011;1161;51.922;8.896;2022-09-09T03:56:37;5.33;;;3.87;;
2305;SDS011;1161;51.922;8.896;2022-09-09T03:59:05;3.40;;;3.10;;
2305;SDS011;1161;51.922;8.896;2022-09-09T04:01:33;5.10;;;2.93;;
2305;SDS011;1161;51.922;8.896;2022-09-09T04:04:01;6.23;;;3.57;;
2305;SDS011;1161;51.922;8.896;2022-09-09T04:06:29;3.83;;;3.53;;
2305;SDS011;1161;51.922;8.896;2022-09-09T04:08:57;8.17;;;3.97;;
2305;SDS011;1161;51.922;8.896;2022-09-09T04:11:26;7.20;;;3.10;;
2305;SDS011;1161;51.922;8.896;2022-09-09T04:13:52;5.57;;;3.30;;
2305;SDS011;1161;51.922;8.896;2022-09-09T04:16:23;5.47;;;3.93;;
2305;SDS011;1161;51.922;8.896;2022-09-09T04:18:51;5.50;;;3.57;;
2305;SDS011;1161;51.922;8.896;2022-09-09T04:21:18;5.70;;;3.60;;
2305;SDS011;1161;51.922;8.896;2022-09-09T04:23:45;4.20;;;3.27;;
2305;SDS011;1161;51.922;8.896;2022-09-09T04:26:13;3.77;;;3.57;;
2305;SDS011;1161;51.922;8.896;2022-09-09T04:28:41;4.13;;;3.60;;
2305;SDS011;1161;51.922;8.896;2022-09-09T04:31:14;2.70;;;2.47;;
2305;SDS011;1161;51.922;8.896;2022-09-09T04:33:42;7.13;;;3.90;;
2305;SDS011;1161;51.922;8.896;2022-09-09T04:36:12;5.40;;;3.57;;
2305;SDS011;1161;51.922;8.896;2022-09-09T04:38:40;3.50;;;3.20;;
2305;SDS011;1161;51.922;8.896;2022-09-09T04:41:07;5.40;;;3.60;;
2305;SDS011;1161;51.922;8.896;2022-09-09T04:43:36;3.87;;;3.57;;
2305;SDS011;1161;51.922;8.896;2022-09-09T04:46:08;9.57;;;3.77;;
2305;SDS011;1161;51.922;8.896;2022-09-09T04:48:36;6.83;;;3.87;;
2305;SDS011;1161;51.922;8.896;2022-09-09T04:51:08;4.73;;;3.83;;
2305;SDS011;1161;51.922;8.896;2022-09-09T04:53:43;4.13;;;3.67;;
2305;SDS011;1161;51.922;8.896;2022-09-09T04:56:10;10.03;;;4.27;;
2305;SDS011;1161;51.922;8.896;2022-09-09T04:58:40;4.30;;;4.00;;
2305;SDS011;1161;51.922;8.896;2022-09-09T05:01:14;4.33;;;3.90;;
2305;SDS011;1161;51.922;8.896;2022-09-09T05:03:45;5.90;;;3.80;;
2305;SDS011;1161;51.922;8.896;2022-09-09T05:06:16;8.23;;;4.30;;
2305;SDS011;1161;51.922;8.896;2022-09-09T05:08:46;5.83;;;3.70;;
2305;SDS011;1161;51.922;8.896;2022-09-09T05:11:16;4.70;;;4.30;;
2305;SDS011;1161;51.922;8.896;2022-09-09T05:13:45;4.57;;;4.17;;
2305;SDS011;1161;51.922;8.896;2022-09-09T05:16:14;8.17;;;4.73;;
2305;SDS011;1161;51.922;8.896;2022-09-09T05:18:41;5.10;;;3.70;;
2305;SDS011;1161;51.922;8.896;2022-09-09T05:21:10;4.23;;;3.87;;
2305;SDS011;1161;51.922;8.896;2022-09-09T05:23:38;6.50;;;3.70;;
2305;SDS011;1161;51.922;8.896;2022-09-09T05:26:08;3.20;;;2.90;;
2305;SDS011;1161;51.922;8.896;2022-09-09T05:28:42;5.40;;;4.10;;
2305;SDS011;1161;51.922;8.896;2022-09-09T05:31:10;7.80;;;3.93;;
2305;SDS011;1161;51.922;8.896;2022-09-09T05:33:41;3.87;;;3.53;;
2305;SDS011;1161;51.922;8.896;2022-09-09T05:36:09;9.43;;;4.40;;
2305;SDS011;1161;51.922;8.896;2022-09-09T05:38:40;8.43;;;4.80;;
2305;SDS011;1161;51.922;8.896;2022-09-09T05:41:08;8.07;;;5.90;;
2305;SDS011;1161;51.922;8.896;2022-09-09T05:43:37;5.20;;;4.10;;
2305;SDS011;1161;51.922;8.896;2022-09-09T05:46:05;6.83;;;4.83;;
2305;SDS011;1161;51.922;8.896;2022-09-09T05:48:37;10.83;;;4.73;;
2305;SDS011;1161;51.922;8.896;2022-09-09T05:51:26;5.30;;;4.80;;
2305;SDS011;1161;51.922;8.896;2022-09-09T05:53:58;6.13;;;5.30;;
2305;SDS011;1161;51.922;8.896;2022-09-09T05:56:26;6.43;;;5.83;;
2305;SDS011;1161;51.922;8.896;2022-09-09T05:58:55;9.80;;;5.93;;
2305;SDS011;1161;51.922;8.896;2022-09-09T06:01:27;9.00;;;6.77;;
2305;SDS011;1161;51.922;8.896;2022-09-09T06:03:56;9.63;;;6.00;;
2305;SDS011;1161;51.922;8.896;2022-09-09T06:06:26;11.73;;;5.97;;
2305;SDS011;1161;51.922;8.896;2022-09-09T06:08:58;13.20;;;5.53;;
2305;SDS011;1161;51.922;8.896;2022-09-09T06:11:28;11.27;;;6.37;;
2305;SDS011;1161;51.922;8.896;2022-09-09T06:13:57;12.77;;;5.63;;
2305;SDS011;1161;51.922;8.896;2022-09-09T06:16:26;8.30;;;5.60;;
2305;SDS011;1161;51.922;8.896;2022-09-09T06:18:55;5.40;;;4.90;;
2305;SDS011;1161;51.922;8.896;2022-09-09T06:21:23;7.80;;;4.70;;
2305;SDS011;1161;51.922;8.896;2022-09-09T06:23:52;7.87;;;4.10;;
2305;SDS011;1161;51.922;8.896;2022-09-09T06:26:20;8.57;;;4.00;;
2305;SDS011;1161;51.922;8.896;2022-09-09T06:28:48;11.00;;;2.60;;
2305;SDS011;1161;51.922;8.896;2022-09-09T06:31:18;6.43;;;2.80;;
2305;SDS011;1161;51.922;8.896;2022-09-09T06:33:47;4.50;;;2.07;;
2305;SDS011;1161;51.922;8.896;2022-09-09T06:36:15;7.17;;;4.97;;
2305;SDS011;1161;51.922;8.896;2022-09-09T06:38:43;7.43;;;2.00;;
2305;SDS011;1161;51.922;8.896;2022-09-09T06:41:13;6.97;;;1.97;;
2305;SDS011;1161;51.922;8.896;2022-09-09T06:43:41;2.17;;;2.07;;
2305;SDS011;1161;51.922;8.896;2022-09-09T06:46:09;7.73;;;2.67;;
2305;SDS011;1161;51.922;8.896;2022-09-09T06:48:39;2.87;;;2.27;;
2305;SDS011;1161;51.922;8.896;2022-09-09T06:51:08;11.60;;;2.63;;
2305;SDS011;1161;51.922;8.896;2022-09-09T06:53:36;4.73;;;2.00;;
2305;SDS011;1161;51.922;8.896;2022-09-09T06:56:17;3.07;;;2.23;;
2305;SDS011;1161;51.922;8.896;2022-09-09T06:58:49;3.50;;;2.50;;
2305;SDS011;1161;51.922;8.896;2022-09-09T07:01:17;3.40;;;3.10;;
2305;SDS011;1161;51.922;8.896;2022-09-09T07:03:46;9.23;;;2.33;;
2305;SDS011;1161;51.922;8.896;2022-09-09T07:06:17;2.73;;;2.50;;
2305;SDS011;1161;51.922;8.896;2022-09-09T07:08:49;5.30;;;1.77;;
2305;SDS011;1161;51.922;8.896;2022-09-09T07:11:19;3.90;;;2.17;;
2305;SDS011;1161;51.922;8.896;2022-09-09T07:13:48;2.83;;;2.00;;
2305;SDS011;1161;51.922;8.896;2022-09-09T07:16:16;4.40;;;2.00;;
2305;SDS011;1161;51.922;8.896;2022-09-09T07:18:45;2.80;;;2.30;;
2305;SDS011;1161;51.922;8.896;2022-09-09T07:21:15;12.33;;;3.63;;
2305;SDS011;1161;51.922;8.896;2022-09-09T07:23:44;4.73;;;3.33;;
2305;SDS011;1161;51.922;8.896;2022-09-09T07:26:12;8.77;;;3.40;;
2305;SDS011;1161;51.922;8.896;2022-09-09T07:28:41;13.50;;;3.37;;
2305;SDS011;1161;51.922;8.896;2022-09-09T07:31:12;7.80;;;3.60;;
2305;SDS011;1161;51.922;8.896;2022-09-09T07:33:42;6.93;;;3.97;;
2305;SDS011;1161;51.922;8.896;2022-09-09T07:36:10;9.20;;;3.10;;
2305;SDS011;1161;51.922;8.896;2022-09-09T07:38:39;14.13;;;4.30;;
2305;SDS011;1161;51.922;8.896;2022-09-09T07:41:09;8.03;;;3.80;;
2305;SDS011;1161;51.922;8.896;2022-09-09T07:43:38;4.70;;;2.70;;
2305;SDS011;1161;51.922;8.896;2022-09-09T07:46:07;6.37;;;3.20;;
2305;SDS011;1161;51.922;8.896;2022-09-09T07:48:37;6.00;;;3.10;;
2305;SDS011;1161;51.922;8.896;2022-09-09T07:51:10;2.70;;;2.60;;
2305;SDS011;1161;51.922;8.896;2022-09-09T07:53:42;10.90;;;3.70;;
2305;SDS011;1161;51.922;8.896;2022-09-09T07:56:10;10.40;;;3.27;;
2305;SDS011;1161;51.922;8.896;2022-09-09T07:58:40;4.70;;;2.67;;
2305;SDS011;1161;51.922;8.896;2022-09-09T08:01:09;9.87;;;3.50;;
2305;SDS011;1161;51.922;8.896;2022-09-09T08:03:37;13.63;;;3.40;;
2305;SDS011;1161;51.922;8.896;2022-09-09T08:06:04;4.03;;;2.70;;
2305;SDS011;1161;51.922;8.896;2022-09-09T08:08:34;3.93;;;3.50;;
2305;SDS011;1161;51.922;8.896;2022-09-09T08:11:04;6.00;;;2.90;;
2305;SDS011;1161;51.922;8.896;2022-09-09T08:13:33;5.63;;;3.20;;
2305;SDS011;1161;51.922;8.896;2022-09-09T08:16:05;3.10;;;2.90;;
2305;SDS011;1161;51.922;8.896;2022-09-09T08:18:36;6.27;;;3.30;;
2305;SDS011;1161;51.922;8.896;2022-09-09T08:21:06;6.00;;;3.17;;
2305;SDS011;1161;51.922;8.896;2022-09-09T08:23:35;6.27;;;3.60;;
2305;SDS011;1161;51.922;8.896;2022-09-09T08:26:04;2.50;;;2.30;;
2305;SDS011;1161;51.922;8.896;2022-09-09T08:28:31;4.13;;;3.07;;
2305;SDS011;1161;51.922;8.896;2022-09-09T08:31:04;2.70;;;2.60;;
2305;SDS011;1161;51.922;8.896;2022-09-09T08:33:33;6.97;;;2.77;;
2305;SDS011;1161;51.922;8.896;2022-09-09T08:36:01;4.10;;;2.77;;
2305;SDS011;1161;51.922;8.896;2022-09-09T08:38:30;5.60;;;3.03;;
2305;SDS011;1161;51.922;8.896;2022-09-09T08:40:59;5.40;;;2.57;;
2305;SDS011;1161;51.922;8.896;2022-09-09T08:43:34;7.57;;;3.50;;
2305;SDS011;1161;51.922;8.896;2022-09-09T08:46:02;5.23;;;2.37;;
2305;SDS011;1161;51.922;8.896;2022-09-09T08:48:42;9.40;;;3.70;;
2305;SDS011;1161;51.922;8.896;2022-09-09T08:51:13;3.17;;;1.63;;
2305;SDS011;1161;51.922;8.896;2022-09-09T08:53:41;5.00;;;2.17;;
2305;SDS011;1161;51.922;8.896;2022-09-09T08:56:11;2.00;;;1.90;;
2305;SDS011;1161;51.922;8.896;2022-09-09T08:58:43;5.07;;;1.93;;
2305;SDS011;1161;51.922;8.896;2022-09-09T09:01:20;5.33;;;1.37;;
2305;SDS011;1161;51.922;8.896;2022-09-09T09:03:59;5.77;;;1.67;;
2305;SDS011;1161;51.922;8.896;2022-09-09T09:06:32;2.30;;;1.43;;
2305;SDS011;1161;51.922;8.896;2022-09-09T09:09:08;2.80;;;1.30;;
2305;SDS011;1161;51.922;8.896;2022-09-09T09:11:43;5.73;;;1.87;;
2305;SDS011;1161;51.922;8.896;2022-09-09T09:14:14;9.07;;;2.10;;
2305;SDS011;1161;51.922;8.896;2022-09-09T09:16:48;2.03;;;1.70;;
2305;SDS011;1161;51.922;8.896;2022-09-09T09:19:20;3.93;;;1.23;;
2305;SDS011;1161;51.922;8.896;2022-09-09T09:21:49;6.40;;;1.60;;
2305;SDS011;1161;51.922;8.896;2022-09-09T09:24:20;7.00;;;1.30;;
2305;SDS011;1161;51.922;8.896;2022-09-09T09:26:49;3.67;;;1.70;;
2305;SDS011;1161;51.922;8.896;2022-09-09T09:29:19;1.83;;;1.43;;
2305;SDS011;1161;51.922;8.896;2022-09-09T09:31:48;3.77;;;1.93;;
2305;SDS011;1161;51.922;8.896;2022-09-09T09:34:21;6.13;;;1.43;;
2305;SDS011;1161;51.922;8.896;2022-09-09T09:36:52;3.70;;;1.00;;
2305;SDS011;1161;51.922;8.896;2022-09-09T09:39:23;3.70;;;1.87;;
2305;SDS011;1161;51.922;8.896;2022-09-09T09:41:52;3.93;;;1.47;;
2305;SDS011;1161;51.922;8.896;2022-09-09T09:44:23;1.63;;;1.27;;
2305;SDS011;1161;51.922;8.896;2022-09-09T09:46:52;4.10;;;1.50;;
2305;SDS011;1161;51.922;8.896;2022-09-09T09:49:18;3.33;;;1.90;;
2305;SDS011;1161;51.922;8.896;2022-09-09T09:51:46;2.40;;;1.20;;
2305;SDS011;1161;51.922;8.896;2022-09-09T09:54:15;2.20;;;1.30;;
2305;SDS011;1161;51.922;8.896;2022-09-09T09:56:46;7.90;;;1.80;;
2305;SDS011;1161;51.922;8.896;2022-09-09T09:59:20;7.83;;;2.40;;
2305;SDS011;1161;51.922;8.896;2022-09-09T10:01:48;6.40;;;1.77;;
2305;SDS011;1161;51.922;8.896;2022-09-09T10:04:15;2.40;;;1.30;;
2305;SDS011;1161;51.922;8.896;2022-09-09T10:06:46;2.80;;;1.90;;
2305;SDS011;1161;51.922;8.896;2022-09-09T10:09:23;4.83;;;1.53;;
2305;SDS011;1161;51.922;8.896;2022-09-09T10:11:54;3.83;;;1.50;;
2305;SDS011;1161;51.922;8.896;2022-09-09T10:14:26;19.67;;;1.60;;
2305;SDS011;1161;51.922;8.896;2022-09-09T10:17:01;3.20;;;1.63;;
2305;SDS011;1161;51.922;8.896;2022-09-09T10:19:35;1.27;;;1.17;;
2305;SDS011;1161;51.922;8.896;2022-09-09T10:22:14;3.77;;;2.60;;
2305;SDS011;1161;51.922;8.896;2022-09-09T10:25:02;3.53;;;2.10;;
2305;SDS011;1161;51.922;8.896;2022-09-09T10:27:38;3.57;;;2.17;;
2305;SDS011;1161;51.922;8.896;2022-09-09T10:30:12;5.10;;;1.63;;
2305;SDS011;1161;51.922;8.896;2022-09-09T10:32:45;5.40;;;1.63;;
2305;SDS011;1161;51.922;8.896;2022-09-09T10:35:17;2.30;;;1.87;;
2305;SDS011;1161;51.922;8.896;2022-09-09T10:40:42;10.97;;;1.10;;
2305;SDS011;1161;51.922;8.896;2022-09-09T10:43:19;3.43;;;1.50;;
2305;SDS011;1161;51.922;8.896;2022-09-09T10:45:54;3.03;;;1.87;;
2305;SDS011;1161;51.922;8.896;2022-09-09T10:48:29;5.27;;;1.60;;
2305;SDS011;1161;51.922;8.896;2022-09-09T10:51:01;5.27;;;1.70;;
2305;SDS011;1161;51.922;8.896;2022-09-09T10:53:39;2.93;;;1.20;;
2305;SDS011;1161;51.922;8.896;2022-09-09T10:56:13;12.50;;;2.60;;
2305;SDS011;1161;51.922;8.896;2022-09-09T10:58:44;5.53;;;1.57;;
2305;SDS011;1161;51.922;8.896;2022-09-09T11:01:16;1.50;;;1.50;;
2305;SDS011;1161;51.922;8.896;2022-09-09T11:03:47;3.43;;;2.33;;
2305;SDS011;1161;51.922;8.896;2022-09-09T11:06:20;4.20;;;1.73;;
2305;SDS011;1161;51.922;8.896;2022-09-09T11:08:51;12.67;;;2.80;;
2305;SDS011;1161;51.922;8.896;2022-09-09T11:11:21;5.40;;;2.00;;
2305;SDS011;1161;51.922;8.896;2022-09-09T11:13:53;3.20;;;1.87;;
2305;SDS011;1161;51.922;8.896;2022-09-09T11:16:24;2.80;;;1.93;;
2305;SDS011;1161;51.922;8.896;2022-09-09T11:18:55;12.70;;;1.70;;
2305;SDS011;1161;51.922;8.896;2022-09-09T11:21:25;2.87;;;2.00;;
2305;SDS011;1161;51.922;8.896;2022-09-09T11:23:56;2.20;;;1.40;;
2305;SDS011;1161;51.922;8.896;2022-09-09T11:26:28;5.57;;;1.80;;
2305;SDS011;1161;51.922;8.896;2022-09-09T11:29:01;8.40;;;1.80;;
2305;SDS011;1161;51.922;8.896;2022-09-09T11:31:43;5.30;;;1.60;;
2305;SDS011;1161;51.922;8.896;2022-09-09T11:34:17;3.50;;;2.07;;
2305;SDS011;1161;51.922;8.896;2022-09-09T11:39:54;4.23;;;1.50;;
2305;SDS011;1161;51.922;8.896;2022-09-09T11:42:27;7.20;;;1.60;;
2305;SDS011;1161;51.922;8.896;2022-09-09T11:44:53;4.20;;;1.43;;
2305;SDS011;1161;51.922;8.896;2022-09-09T11:47:23;5.77;;;1.50;;
2305;SDS011;1161;51.922;8.896;2022-09-09T11:49:55;1.33;;;1.20;;
2305;SDS011;1161;51.922;8.896;2022-09-09T11:52:22;8.07;;;1.47;;
2305;SDS011;1161;51.922;8.896;2022-09-09T11:54:54;4.47;;;1.33;;
2305;SDS011;1161;51.922;8.896;2022-09-09T11:57:26;4.43;;;1.63;;
2305;SDS011;1161;51.922;8.896;2022-09-09T11:59:57;2.47;;;1.20;;
2305;SDS011;1161;51.922;8.896;2022-09-09T12:02:26;2.60;;;1.37;;
2305;SDS011;1161;51.922;8.896;2022-09-09T12:04:57;6.00;;;1.50;;
2305;SDS011;1161;51.922;8.896;2022-09-09T12:07:29;2.67;;;1.60;;
2305;SDS011;1161;51.922;8.896;2022-09-09T12:10:00;5.03;;;1.57;;
2305;SDS011;1161;51.922;8.896;2022-09-09T12:12:32;6.40;;;1.77;;
2305;SDS011;1161;51.922;8.896;2022-09-09T12:15:01;5.10;;;1.50;;
2305;SDS011;1161;51.922;8.896;2022-09-09T12:17:46;5.83;;;1.40;;
2305;SDS011;1161;51.922;8.896;2022-09-09T12:20:16;3.63;;;1.67;;
2305;SDS011;1161;51.922;8.896;2022-09-09T12:25:40;6.13;;;1.40;;
2305;SDS011;1161;51.922;8.896;2022-09-09T12:28:17;4.43;;;1.60;;
2305;SDS011;1161;51.922;8.896;2022-09-09T12:30:47;9.73;;;2.00;;
2305;SDS011;1161;51.922;8.896;2022-09-09T12:33:17;3.03;;;1.20;;
2305;SDS011;1161;51.922;8.896;2022-09-09T12:35:45;4.00;;;1.40;;
2305;SDS011;1161;51.922;8.896;2022-09-09T12:38:16;1.30;;;1.20;;
2305;SDS011;1161;51.922;8.896;2022-09-09T12:40:55;2.63;;;1.77;;
2305;SDS011;1161;51.922;8.896;2022-09-09T12:43:23;24.93;;;2.70;;
2305;SDS011;1161;51.922;8.896;2022-09-09T12:45:55;2.10;;;1.30;;
2305;SDS011;1161;51.922;8.896;2022-09-09T12:48:25;3.90;;;1.50;;
2305;SDS011;1161;51.922;8.896;2022-09-09T12:51:03;1.57;;;1.47;;
2305;SDS011;1161;51.922;8.896;2022-09-09T12:53:32;2.23;;;1.30;;
2305;SDS011;1161;51.922;8.896;2022-09-09T12:56:03;12.07;;;3.53;;
2305;SDS011;1161;51.922;8.896;2022-09-09T12:58:32;1.20;;;1.10;;
2305;SDS011;1161;51.922;8.896;2022-09-09T13:01:00;1.73;;;1.33;;
2305;SDS011;1161;51.922;8.896;2022-09-09T13:03:30;3.47;;;1.60;;
2305;SDS011;1161;51.922;8.896;2022-09-09T13:05:58;7.20;;;1.70;;
2305;SDS011;1161;51.922;8.896;2022-09-09T13:08:36;2.57;;;1.23;;
2305;SDS011;1161;51.922;8.896;2022-09-09T13:11:06;2.30;;;1.33;;
2305;SDS011;1161;51.922;8.896;2022-09-09T13:13:36;2.30;;;1.03;;
2305;SDS011;1161;51.922;8.896;2022-09-09T13:16:05;10.77;;;1.77;;
2305;SDS011;1161;51.922;8.896;2022-09-09T13:18:35;5.20;;;0.97;;
2305;SDS011;1161;51.922;8.896;2022-09-09T13:21:03;5.37;;;3.00;;
2305;SDS011;1161;51.922;8.896;2022-09-09T13:23:31;4.27;;;1.63;;
2305;SDS011;1161;51.922;8.896;2022-09-09T13:26:00;6.80;;;0.83;;
2305;SDS011;1161;51.922;8.896;2022-09-09T13:28:31;3.13;;;1.17;;
2305;SDS011;1161;51.922;8.896;2022-09-09T13:31:00;4.23;;;0.90;;
2305;SDS011;1161;51.922;8.896;2022-09-09T13:33:31;4.30;;;1.00;;
2305;SDS011;1161;51.922;8.896;2022-09-09T13:35:59;2.50;;;1.27;;
2305;SDS011;1161;51.922;8.896;2022-09-09T13:38:29;4.20;;;1.63;;
2305;SDS011;1161;51.922;8.896;2022-09-09T13:40:59;3.30;;;1.60;;
2305;SDS011;1161;51.922;8.896;2022-09-09T13:43:28;6.27;;;1.30;;
2305;SDS011;1161;51.922;8.896;2022-09-09T13:45:58;4.93;;;1.97;;
2305;SDS011;1161;51.922;8.896;2022-09-09T13:48:26;5.60;;;1.10;;
2305;SDS011;1161;51.922;8.896;2022-09-09T13:50:55;5.47;;;1.27;;
2305;SDS011;1161;51.922;8.896;2022-09-09T13:53:23;13.33;;;2.10;;
2305;SDS011;1161;51.922;8.896;2022-09-09T13:55:50;1.40;;;1.30;;
2305;SDS011;1161;51.922;8.896;2022-09-09T13:58:18;3.30;;;1.00;;
2305;SDS011;1161;51.922;8.896;2022-09-09T14:00:46;8.77;;;1.50;;
2305;SDS011;1161;51.922;8.896;2022-09-09T14:03:13;5.03;;;1.40;;
2305;SDS011;1161;51.922;8.896;2022-09-09T14:05:40;4.93;;;1.63;;
2305;SDS011;1161;51.922;8.896;2022-09-09T14:08:07;3.40;;;0.97;;
2305;SDS011;1161;51.922;8.896;2022-09-09T14:10:42;2.93;;;1.33;;
2305;SDS011;1161;51.922;8.896;2022-09-09T14:13:08;4.17;;;1.70;;
2305;SDS011;1161;51.922;8.896;2022-09-09T14:15:35;1.80;;;1.37;;
2305;SDS011;1161;51.922;8.896;2022-09-09T14:18:03;6.57;;;2.70;;
2305;SDS011;1161;51.922;8.896;2022-09-09T14:20:30;3.47;;;1.70;;
2305;SDS011;1161;51.922;8.896;2022-09-09T14:22:57;5.80;;;1.30;;
2305;SDS011;1161;51.922;8.896;2022-09-09T14:25:24;3.63;;;0.80;;
2305;SDS011;1161;51.922;8.896;2022-09-09T14:27:50;9.57;;;1.37;;
2305;SDS011;1161;51.922;8.896;2022-09-09T14:30:17;2.93;;;0.93;;
2305;SDS011;1161;51.922;8.896;2022-09-09T14:32:44;3.90;;;1.60;;
2305;SDS011;1161;51.922;8.896;2022-09-09T14:35:12;6.70;;;2.03;;
2305;SDS011;1161;51.922;8.896;2022-09-09T14:37:38;8.47;;;1.77;;
2305;SDS011;1161;51.922;8.896;2022-09-09T14:40:06;2.93;;;1.10;;
2305;SDS011;1161;51.922;8.896;2022-09-09T14:42:34;2.93;;;0.97;;
2305;SDS011;1161;51.922;8.896;2022-09-09T14:45:01;1.87;;;1.17;;
2305;SDS011;1161;51.922;8.896;2022-09-09T14:47:27;2.83;;;1.00;;
2305;SDS011;1161;51.922;8.896;2022-09-09T14:49:55;3.10;;;0.80;;
2305;SDS011;1161;51.922;8.896;2022-09-09T14:52:23;2.10;;;1.90;;
2305;SDS011;1161;51.922;8.896;2022-09-09T14:54:51;3.70;;;1.63;;
2305;SDS011;1161;51.922;8.896;2022-09-09T14:57:18;10.10;;;1.43;;
2305;SDS011;1161;51.922;8.896;2022-09-09T14:59:45;4.10;;;1.00;;
2305;SDS011;1161;51.922;8.896;2022-09-09T15:02:11;1.90;;;1.00;;
2305;SDS011;1161;51.922;8.896;2022-09-09T15:04:39;2.10;;;0.83;;
2305;SDS011;1161;51.922;8.896;2022-09-09T15:07:06;9.63;;;1.50;;
2305;SDS011;1161;51.922;8.896;2022-09-09T15:09:34;1.30;;;1.00;;
2305;SDS011;1161;51.922;8.896;2022-09-09T15:12:02;2.60;;;1.30;;
2305;SDS011;1161;51.922;8.896;2022-09-09T15:14:29;1.00;;;1.00;;
2305;SDS011;1161;51.922;8.896;2022-09-09T15:16:57;1.70;;;1.60;;
2305;SDS011;1161;51.922;8.896;2022-09-09T15:19:23;2.20;;;0.93;;
2305;SDS011;1161;51.922;8.896;2022-09-09T15:21:51;3.97;;;1.27;;
2305;SDS011;1161;51.922;8.896;2022-09-09T15:24:17;1.10;;;1.10;;
2305;SDS011;1161;51.922;8.896;2022-09-09T15:26:46;1.00;;;0.90;;
2305;SDS011;1161;51.922;8.896;2022-09-09T15:29:13;0.93;;;0.93;;
2305;SDS011;1161;51.922;8.896;2022-09-09T15:31:39;1.30;;;1.20;;
2305;SDS011;1161;51.922;8.896;2022-09-09T15:34:06;2.50;;;1.03;;
2305;SDS011;1161;51.922;8.896;2022-09-09T15:36:34;3.37;;;1.10;;
2305;SDS011;1161;51.922;8.896;2022-09-09T15:39:02;1.20;;;1.20;;
2305;SDS011;1161;51.922;8.896;2022-09-09T15:41:30;4.80;;;1.20;;
2305;SDS011;1161;51.922;8.896;2022-09-09T15:43:59;1.70;;;0.90;;